Aérodrome :
LOGIN :

S'inscrire | Disclaimer

   EN    FR    IT 

 










Légende :    VFR   VFR Marginal   IFR   IFR Intensif   IFR Très Intensif
Visi : 
Plafond : 
>= 8 km
>= 3000ft
5 à 8 km
1000 à 3000 ft
1500m à 5 km
500 à 1000 ft
800 à 1500m
200 à 500 ft
< 800m
< 200 ft
Symboles :   Orages  Brouillard  Fortes neiges  Fortes précipitations  Vent > 20 kt
SIGMETs :   Divers  Orages  Givrage  Turbulence  Onde Orograph.  Cendres Volcan.







- Altitude de l'aérodrome : 256 ft
- Code IATA : CFR
- Voir les cartes d'approche


LFRK - Caen

METARs EXPIRÉS :
  • 241430Z AUTO 26011KT 220V290 9999 SCT043 BKN076 24/14 Q1017 NOSIG
  • 241400Z AUTO 25010KT 9999 BKN042 OVC078 25/14 Q1017 TEMPO 31010KT
  • 241330Z AUTO 26011KT 9999 BKN038 BKN076 23/15 Q1017 NOSIG
  • 241300Z AUTO 25012KT 9999 OVC033 23/14 Q1018 TEMPO 31010KT
  • 241230Z AUTO 25011KT 9999 OVC031 22/14 Q1018 TEMPO 31010KT
  • 241200Z AUTO 24012KT 200V270 9999 OVC028 21/14 Q1018 NOSIG

Prévision TAF périmée.
Météo : +33 2 31 26 68 11
Pas de NOTAMs connus pour ce terrain.



MET'MAP, la Météo Aéronautique d'un coup d'oeil ! - Copyright ORBIFLY Décembre 2007 - Disclaimer

ORBIFLY MET'MAP TEAM :

Programmation & Développement : Alexandra Zaïnal
Conception & Développement : Baudouin d'Aumeries
Co-Programmation & Développement : Marc-Olivier Méhu
Soutien technique & logistique : Manuel Goepfert

Contact : metmap@orbifly.com




SOURCES & CREDITS :

   NOAA